Andersen Air Force Base
PGUA : now visible

Airfield :











YOU CAN JOIN US ON...

 
LOGIN :

Register | Disclaimer

   EN    FR    IT 

 









Legend :    VFR   Marginal VFR   IFR   Intensive IFR   Very Intensive IFR
Visi :
Ceiling :
>= 8 km
>= 3000ft
5 to 8 km
1000 to 3000 ft
1500m to 5 km
500 to 1000 ft
800 to 1500m
200 to 500 ft
< 800m
< 200 ft
Symbols :   Thunderstorms  Fog  Heavy snow  Heavy precipitations  Wind > 20 kt






- Airport Elevation : 627 ft
- IATA code : UAM


PGUA - Andersen Air Force Base

CURRENT METAR :
  • 230401Z 10004KT 10SM FEW025 BKN038 26/24 A2983 RMK AO2A SLP092 $

EXPIRED METARs :
  • 230356Z 00000KT 6SM -RA FEW027 BKN038 26/23 A2983 RMK AO2A RAB32 SLP092 P0003 T02580232 $
  • 230332Z 09009KT 6SM -RA FEW010 BKN014 BKN022 OVC028 26/23 A2983 RMK AO2A SLP092 $
  • 230256Z 11008KT 10SM BKN012 28/25 A2984 RMK AO2A SLP095 60007 T02810245 57023 $
  • 230156Z 14008KT 10SM FEW014 SCT140 28/24 A2987 RMK AO2A SLP105 T02770239 $

TAF TAF PGUA
Valid from the 23 at 02:00 until the 24 at 08:00 UTC


230231Z 2302/2408 15009KT 9999 SCT014 BKN140 QNH2978INS
TEMPO 2302/2308 15010G15KT VCTS BKN010CB
TEMPO 2308/2321 16009KT VCSH BKN010
TEMPO 2321/2323 17015G20KT 3200 SHRA VCTS SCT008 BKN015CB OVC020
BECMG 2322/2323 18015G25KT 3200 SHRA BKN008 OVC020 QNH2977INS
TEMPO 2402/2406 20025G35KT 1600 VCTS BKN008CB OVC020 TX28/2302Z TN24/2319Z
PGZU FIR / Oceania



MET'MAP, your aeronautical weather chart ! - Copyright ORBIFLY December 2007 - Disclaimer

ORBIFLY MET'MAP TEAM :

Programming & Development : Alexandra Zaïnal
Concept & original design : Baudouin d'Aumeries
Assistance for programming : Marc-Olivier Méhu
Technical & hardware support : Manuel Goepfert

Contact : metmap@orbifly.com




SOURCES & CREDITS :

   NOAA       Earth
Advisory